createdAt,value
2018-11-06T00:03:14.341Z,10.55
2018-11-06T00:05:42.088Z,10.52
2018-11-06T00:08:10.426Z,10.49
2018-11-06T00:10:38.757Z,10.46
2018-11-06T00:13:07.093Z,10.45
2018-11-06T00:15:36.005Z,10.42
2018-11-06T00:18:03.751Z,10.41
2018-11-06T00:20:32.670Z,10.36
2018-11-06T00:23:01.010Z,10.32
2018-11-06T00:25:28.750Z,10.28
2018-11-06T00:27:57.674Z,10.24
2018-11-06T00:30:26.013Z,10.22
2018-11-06T00:32:53.759Z,10.20
2018-11-06T00:35:22.094Z,10.18
2018-11-06T00:37:51.017Z,10.16
2018-11-06T00:40:18.756Z,10.15
2018-11-06T00:42:47.092Z,10.15
2018-11-06T00:45:16.007Z,10.16
2018-11-06T00:47:44.344Z,10.17
2018-11-06T00:50:12.666Z,10.16
2018-11-06T00:52:41.002Z,10.15
2018-11-06T00:55:08.760Z,10.17
2018-11-06T00:57:37.668Z,10.18
2018-11-06T01:00:05.415Z,10.18
2018-11-06T01:02:33.741Z,10.18
2018-11-06T01:05:02.121Z,10.20
2018-11-06T01:07:30.408Z,10.20
2018-11-06T01:09:58.743Z,10.22
2018-11-06T01:12:27.071Z,10.25
2018-11-06T01:14:55.394Z,10.32
2018-11-06T01:17:24.303Z,10.37
2018-11-06T01:19:52.051Z,10.43
2018-11-06T01:22:20.973Z,10.50
2018-11-06T01:24:49.303Z,10.56
2018-11-06T01:27:17.630Z,10.63
2018-11-06T01:29:45.384Z,10.70
2018-11-06T01:32:14.303Z,10.77
2018-11-06T01:34:42.049Z,10.82
2018-11-06T01:37:10.388Z,10.84
2018-11-06T01:39:38.715Z,10.89
2018-11-06T01:42:07.050Z,10.93
2018-11-06T01:44:35.377Z,10.96
2018-11-06T01:47:03.715Z,10.98
2018-11-06T01:49:32.646Z,11.03
2018-11-06T01:52:00.381Z,11.05
2018-11-06T01:54:28.708Z,11.08
2018-11-06T01:56:57.067Z,11.09
2018-11-06T01:59:25.980Z,11.09
2018-11-06T02:01:54.313Z,11.10
2018-11-06T02:04:22.656Z,11.09
2018-11-06T02:06:50.404Z,11.08
2018-11-06T02:09:18.735Z,11.07
2018-11-06T02:11:47.645Z,11.05
2018-11-06T02:14:15.396Z,11.02
2018-11-06T02:16:43.734Z,11.02
2018-11-06T02:19:12.663Z,11.00
2018-11-06T02:21:40.998Z,10.98
2018-11-06T02:24:08.748Z,10.96
2018-11-06T02:26:37.185Z,10.93
2018-11-06T02:29:05.405Z,10.89
2018-11-06T02:31:34.321Z,10.86
2018-11-06T02:34:02.648Z,10.82
2018-11-06T02:36:30.401Z,10.79
2018-11-06T02:38:58.741Z,10.76
2018-11-06T02:41:27.656Z,10.72
2018-11-06T02:43:55.409Z,10.66
2018-11-06T02:46:24.318Z,10.65
2018-11-06T02:48:52.071Z,10.64
2018-11-06T02:51:20.984Z,10.64
2018-11-06T02:53:48.737Z,10.65
2018-11-06T02:56:17.070Z,10.65
2018-11-06T02:58:46.016Z,10.68
2018-11-06T03:01:14.348Z,10.72
2018-11-06T03:03:42.093Z,10.73
2018-11-06T03:06:10.423Z,10.75
2018-11-06T03:08:39.350Z,10.76
2018-11-06T03:11:07.689Z,10.78
2018-11-06T03:13:36.017Z,10.77
2018-11-06T03:16:04.352Z,10.77
2018-11-06T03:18:32.683Z,10.78
2018-11-06T03:21:01.013Z,10.80
2018-11-06T03:23:28.765Z,10.81
2018-11-06T03:25:57.097Z,10.83
2018-11-06T03:28:26.007Z,10.86
2018-11-06T03:30:53.757Z,10.87
2018-11-06T03:33:22.672Z,10.90
2018-11-06T03:35:50.420Z,10.92
2018-11-06T03:38:19.324Z,10.93
2018-11-06T03:40:47.652Z,10.91
2018-11-06T03:43:15.992Z,10.91
2018-11-06T03:45:43.743Z,10.92
2018-11-06T03:48:12.646Z,10.93
2018-11-06T03:50:40.388Z,10.92
2018-11-06T03:53:08.717Z,10.90
2018-11-06T03:55:37.039Z,10.89
2018-11-06T03:58:05.380Z,10.89
2018-11-06T04:00:34.295Z,10.88
2018-11-06T04:03:02.578Z,10.88
2018-11-06T04:05:30.364Z,10.86
2018-11-06T04:07:58.695Z,10.83
2018-11-06T04:10:27.596Z,10.81
2018-11-06T04:12:55.344Z,10.80
2018-11-06T04:15:23.670Z,10.79
2018-11-06T04:17:52.571Z,10.76
2018-11-06T04:20:20.893Z,10.75
2018-11-06T04:22:49.216Z,10.73
2018-11-06T04:25:17.538Z,10.69
2018-11-06T04:27:45.633Z,10.63
2018-11-06T04:30:13.623Z,10.57
2018-11-06T04:32:41.952Z,10.51
2018-11-06T04:35:11.084Z,10.50
2018-11-06T04:37:38.599Z,10.46
2018-11-06T04:40:06.924Z,10.44
2018-11-06T04:42:35.476Z,10.43
2018-11-06T04:45:04.177Z,10.41
2018-11-06T04:47:32.503Z,10.38
2018-11-06T04:50:00.261Z,10.35
2018-11-06T04:52:29.169Z,10.31
2018-11-06T04:54:57.496Z,10.28
2018-11-06T04:57:25.243Z,10.26
2018-11-06T04:59:53.572Z,10.23
2018-11-06T05:02:22.514Z,10.19
2018-11-06T05:04:50.852Z,10.16
2018-11-06T05:07:19.182Z,10.11
2018-11-06T05:09:47.521Z,10.05
2018-11-06T05:12:16.190Z,10.02
2018-11-06T05:14:43.955Z,9.98
2018-11-06T05:17:12.852Z,9.95
2018-11-06T05:19:41.173Z,9.93
2018-11-06T05:22:08.934Z,9.90
2018-11-06T05:24:37.299Z,9.88
2018-11-06T05:27:05.632Z,9.84
2018-11-06T05:29:33.921Z,9.83
2018-11-06T05:32:02.822Z,9.83
2018-11-06T05:34:30.573Z,9.85
2018-11-06T05:36:59.479Z,9.83
2018-11-06T05:39:27.875Z,9.83
2018-11-06T05:41:55.554Z,9.87
2018-11-06T05:44:24.473Z,9.90
2018-11-06T05:46:52.833Z,9.93
2018-11-06T05:49:20.583Z,9.95
2018-11-06T05:51:48.911Z,9.97
2018-11-06T05:54:17.845Z,9.99
2018-11-06T05:56:46.168Z,9.99
2018-11-06T05:59:13.926Z,10.00
2018-11-06T06:01:42.848Z,10.02
2018-11-06T06:04:11.459Z,10.06
2018-11-06T06:06:39.812Z,10.08
2018-11-06T06:09:07.690Z,10.11
2018-11-06T06:11:36.521Z,10.13
2018-11-06T06:14:04.265Z,10.15
2018-11-06T06:16:33.476Z,10.17
2018-11-06T06:19:01.800Z,10.20
2018-11-06T06:21:29.553Z,10.21
2018-11-06T06:23:58.470Z,10.20
2018-11-06T06:26:27.631Z,10.19
2018-11-06T06:28:55.447Z,10.18
2018-11-06T06:31:23.775Z,10.18
2018-11-06T06:33:52.111Z,10.18
2018-11-06T06:36:20.454Z,10.18
2018-11-06T06:38:48.240Z,10.16
2018-11-06T06:41:16.536Z,10.14
2018-11-06T06:43:44.886Z,10.13
2018-11-06T06:46:14.193Z,10.15
2018-11-06T06:48:42.467Z,10.16
2018-11-06T06:51:10.806Z,10.20
2018-11-06T06:53:39.121Z,10.21
2018-11-06T06:56:07.454Z,10.23
2018-11-06T06:58:35.784Z,10.25
2018-11-06T07:01:03.531Z,10.29
2018-11-06T07:03:31.860Z,10.33
2018-11-06T07:06:00.795Z,10.38
2018-11-06T07:08:28.539Z,10.41
2018-11-06T07:10:56.869Z,10.47
2018-11-06T07:13:25.782Z,10.51
2018-11-06T07:15:53.643Z,10.57
2018-11-06T07:18:22.676Z,10.63
2018-11-06T07:20:50.180Z,10.68
2018-11-06T07:23:19.087Z,10.73
2018-11-06T07:25:47.409Z,10.78
2018-11-06T07:28:15.748Z,10.82
2018-11-06T07:30:43.497Z,10.89
2018-11-06T07:33:12.409Z,10.94
2018-11-06T07:35:40.343Z,11.00
2018-11-06T07:38:08.483Z,11.04
2018-11-06T07:40:37.525Z,11.12
2018-11-06T07:43:05.148Z,11.19
2018-11-06T07:45:34.052Z,11.25
2018-11-06T07:48:02.404Z,11.31
2018-11-06T07:50:30.278Z,11.38
2018-11-06T07:52:58.482Z,11.44
2018-11-06T07:55:27.421Z,11.50
2018-11-06T07:57:55.757Z,11.57
2018-11-06T08:00:24.081Z,11.64
2018-11-06T08:02:52.416Z,11.68
2018-11-06T08:05:20.974Z,11.75
2018-11-06T08:07:48.614Z,11.83
2018-11-06T08:10:16.940Z,11.90
2018-11-06T08:12:45.842Z,11.98
2018-11-06T08:15:13.655Z,12.06
2018-11-06T08:17:41.925Z,12.12
2018-11-06T08:20:11.315Z,12.18
2018-11-06T08:22:39.052Z,12.25
2018-11-06T08:25:07.957Z,12.33
2018-11-06T08:27:36.315Z,12.38
2018-11-06T08:30:04.024Z,12.45
2018-11-06T08:32:33.213Z,12.53
2018-11-06T08:35:01.461Z,12.61
2018-11-06T08:37:29.789Z,12.70
2018-11-06T08:39:58.117Z,12.77
2018-11-06T08:42:27.095Z,12.83
2018-11-06T08:44:55.355Z,12.91
2018-11-06T08:47:23.681Z,12.98
2018-11-06T08:49:52.012Z,13.04
2018-11-06T08:52:20.334Z,13.11
2018-11-06T08:54:48.677Z,13.17
2018-11-06T08:57:16.993Z,13.22
2018-11-06T08:59:45.335Z,13.29
2018-11-06T09:02:13.658Z,13.35
2018-11-06T09:04:41.987Z,13.42
2018-11-06T09:07:10.326Z,13.48
2018-11-06T09:09:38.120Z,13.55
2018-11-06T09:12:07.029Z,13.63
2018-11-06T09:14:35.353Z,13.70
2018-11-06T09:17:03.715Z,13.76
2018-11-06T09:19:32.007Z,13.83
2018-11-06T09:22:00.376Z,13.87
2018-11-06T09:24:28.125Z,13.92
2018-11-06T09:26:56.453Z,13.96
2018-11-06T09:29:25.364Z,14.02
2018-11-06T09:31:53.691Z,14.08
2018-11-06T09:34:22.089Z,14.15
2018-11-06T09:36:50.434Z,14.22
2018-11-06T09:39:18.182Z,14.28
2018-11-06T09:41:46.514Z,14.37
2018-11-06T09:44:15.422Z,14.44
2018-11-06T09:46:43.749Z,14.50
2018-11-06T09:49:11.497Z,14.56
2018-11-06T09:51:39.821Z,14.63
2018-11-06T09:54:08.726Z,14.71
2018-11-06T09:56:37.056Z,14.79
2018-11-06T09:59:04.804Z,14.87
2018-11-06T10:01:33.131Z,14.96
2018-11-06T10:04:02.051Z,15.05
2018-11-06T10:06:29.894Z,15.13
2018-11-06T10:08:58.711Z,15.22
2018-11-06T10:11:27.253Z,15.31
2018-11-06T10:13:55.410Z,15.41
2018-11-06T10:16:23.156Z,15.48
2018-11-06T10:18:51.487Z,15.56
2018-11-06T10:21:19.828Z,15.66
2018-11-06T10:23:48.243Z,15.73
2018-11-06T10:26:17.154Z,15.83
2018-11-06T10:28:44.896Z,15.91
2018-11-06T10:31:13.812Z,16.00
2018-11-06T10:33:42.136Z,16.06
2018-11-06T10:36:10.472Z,16.14
2018-11-06T10:38:38.224Z,16.21
2018-11-06T10:41:06.551Z,16.30
2018-11-06T10:43:34.899Z,16.37
2018-11-06T10:46:03.800Z,16.45
2018-11-06T10:48:31.557Z,16.57
2018-11-06T10:51:00.471Z,16.71
2018-11-06T10:53:28.793Z,16.87
2018-11-06T10:55:56.533Z,17.06
2018-11-06T10:58:25.457Z,17.25
2018-11-06T11:00:53.775Z,17.46
2018-11-06T11:03:22.101Z,17.67
2018-11-06T11:05:50.431Z,17.80
2018-11-06T11:08:18.754Z,17.93
2018-11-06T11:10:46.508Z,18.05
2018-11-06T11:13:14.880Z,18.16
2018-11-06T11:15:43.262Z,18.24
2018-11-06T11:18:12.181Z,18.25
2018-11-06T11:20:40.545Z,18.26
2018-11-06T11:23:08.844Z,18.29
2018-11-06T11:25:36.662Z,18.35
2018-11-06T11:28:05.516Z,18.44
2018-11-06T11:30:33.265Z,18.56
2018-11-06T11:33:02.168Z,18.66
2018-11-06T11:35:29.918Z,18.76
2018-11-06T11:37:58.833Z,18.90
2018-11-06T11:40:27.154Z,19.01
2018-11-06T11:42:55.479Z,19.15
2018-11-06T11:45:23.232Z,19.30
2018-11-06T11:47:51.576Z,19.43
2018-11-06T11:50:19.911Z,19.55
2018-11-06T11:52:48.822Z,19.68
2018-11-06T11:55:16.572Z,19.77
2018-11-06T11:57:44.906Z,19.86
2018-11-06T12:00:13.336Z,19.98
2018-11-06T12:02:41.596Z,20.03
2018-11-06T12:05:09.937Z,20.16
2018-11-06T12:07:39.079Z,20.37
2018-11-06T12:10:07.195Z,20.59
2018-11-06T12:12:35.525Z,20.81
2018-11-06T12:15:03.746Z,21.01
2018-11-06T12:17:32.364Z,21.03
2018-11-06T12:20:00.690Z,21.03
2018-11-06T12:22:29.027Z,21.04
2018-11-06T12:24:56.832Z,21.17
2018-11-06T12:27:25.697Z,21.35
2018-11-06T12:29:54.039Z,21.47
2018-11-06T12:32:22.384Z,21.56
2018-11-06T12:34:50.727Z,21.60
2018-11-06T12:37:18.528Z,21.54
2018-11-06T12:39:47.427Z,21.41
2018-11-06T12:42:15.175Z,21.41
2018-11-06T12:44:44.079Z,21.35
2018-11-06T12:47:11.835Z,21.31
2018-11-06T12:49:40.769Z,21.22
2018-11-06T12:52:09.089Z,21.12
2018-11-06T12:54:37.409Z,21.12
2018-11-06T12:57:05.157Z,21.17
2018-11-06T12:59:34.323Z,21.28
2018-11-06T13:02:02.098Z,21.44
2018-11-06T13:04:30.427Z,21.56
2018-11-06T13:06:58.757Z,21.86
2018-11-06T13:09:27.089Z,22.18
2018-11-06T13:11:56.006Z,22.40
2018-11-06T13:14:24.378Z,22.55
2018-11-06T13:16:52.711Z,22.58
2018-11-06T13:19:20.453Z,22.58
2018-11-06T13:21:49.351Z,22.44
2018-11-06T13:24:17.695Z,22.37
2018-11-06T13:26:46.014Z,22.29
2018-11-06T13:29:14.923Z,22.31
2018-11-06T13:31:42.669Z,22.36
2018-11-06T13:34:11.582Z,22.37
2018-11-06T13:36:39.921Z,22.43
2018-11-06T13:39:08.250Z,22.32
2018-11-06T13:41:36.574Z,22.21
2018-11-06T13:44:05.063Z,22.27
2018-11-06T13:46:33.233Z,22.34
2018-11-06T13:49:01.567Z,22.35
2018-11-06T13:51:29.896Z,22.36
2018-11-06T13:53:57.648Z,22.38
2018-11-06T13:56:26.547Z,22.41
2018-11-06T13:58:54.289Z,22.48
2018-11-06T14:01:23.206Z,22.51
2018-11-06T14:03:51.551Z,22.54
2018-11-06T14:06:19.882Z,22.54
2018-11-06T14:08:47.632Z,22.50
2018-11-06T14:11:15.978Z,22.45
2018-11-06T14:13:44.895Z,22.36
2018-11-06T14:16:12.644Z,22.24
2018-11-06T14:18:41.580Z,22.08
2018-11-06T14:21:09.945Z,21.82
2018-11-06T14:23:37.653Z,21.49
2018-11-06T14:26:06.565Z,21.09
2018-11-06T14:28:34.319Z,20.73
2018-11-06T14:31:02.676Z,20.34
2018-11-06T14:33:31.581Z,19.94
2018-11-06T14:36:00.017Z,19.59
2018-11-06T14:38:28.266Z,19.27
2018-11-06T14:40:56.591Z,18.94
2018-11-06T14:43:24.944Z,18.62
2018-11-06T14:45:53.506Z,18.35
2018-11-06T14:48:21.136Z,18.12
2018-11-06T14:50:49.975Z,17.92
2018-11-06T14:53:18.304Z,17.70
2018-11-06T14:55:46.685Z,17.51
2018-11-06T14:58:14.960Z,17.33
2018-11-06T15:00:43.297Z,17.15
2018-11-06T15:03:11.326Z,16.99
2018-11-06T15:05:40.302Z,16.84
2018-11-06T15:08:07.996Z,16.69
2018-11-06T15:10:36.911Z,16.58
2018-11-06T15:13:05.239Z,16.46
2018-11-06T15:15:33.581Z,16.35
2018-11-06T15:18:01.910Z,16.23
2018-11-06T15:20:29.746Z,16.08
2018-11-06T15:22:58.840Z,15.97
2018-11-06T15:25:26.365Z,15.85
2018-11-06T15:27:54.691Z,15.76
2018-11-06T15:30:23.604Z,15.67
2018-11-06T15:32:52.593Z,15.56
2018-11-06T15:35:20.333Z,15.49
2018-11-06T15:37:49.237Z,15.42
2018-11-06T15:40:16.986Z,15.34
2018-11-06T15:42:45.898Z,15.25
2018-11-06T15:45:13.652Z,15.15
2018-11-06T15:47:42.562Z,15.07
2018-11-06T15:50:10.898Z,14.98
2018-11-06T15:52:39.241Z,14.87
2018-11-06T15:55:08.168Z,14.81
2018-11-06T15:57:36.504Z,14.72
2018-11-06T16:00:04.845Z,14.63
2018-11-06T16:02:32.598Z,14.51
2018-11-06T16:05:01.515Z,14.41
2018-11-06T16:07:29.267Z,14.37
2018-11-06T16:09:57.601Z,14.32
2018-11-06T16:12:25.929Z,14.23
2018-11-06T16:14:54.856Z,14.16
2018-11-06T16:17:22.611Z,14.08
2018-11-06T16:19:52.047Z,14.01
2018-11-06T16:22:20.822Z,13.95
2018-11-06T16:24:49.164Z,13.89
2018-11-06T16:27:16.915Z,13.85
2018-11-06T16:29:45.875Z,13.80
2018-11-06T16:32:13.592Z,13.72
2018-11-06T16:34:42.514Z,13.66
2018-11-06T16:37:10.354Z,13.56
2018-11-06T16:39:39.235Z,13.48
2018-11-06T16:42:07.559Z,13.39
2018-11-06T16:44:35.936Z,13.32
2018-11-06T16:47:04.375Z,13.28
2018-11-06T16:49:32.731Z,13.24
2018-11-06T16:52:01.147Z,13.21
2018-11-06T16:54:29.505Z,13.19
2018-11-06T16:56:57.966Z,13.17
2018-11-06T16:59:26.262Z,13.13
2018-11-06T17:01:54.585Z,13.09
2018-11-06T17:04:22.341Z,12.98
2018-11-06T17:06:51.262Z,12.92
2018-11-06T17:09:19.607Z,12.92
2018-11-06T17:11:48.048Z,12.87
2018-11-06T17:14:16.361Z,12.81
2018-11-06T17:16:44.105Z,12.76
2018-11-06T17:19:13.025Z,12.70
2018-11-06T17:21:41.373Z,12.65
2018-11-06T17:24:09.741Z,12.62
2018-11-06T17:26:38.319Z,12.56
2018-11-06T17:29:06.679Z,12.54
2018-11-06T17:31:34.436Z,12.50
2018-11-06T17:34:03.363Z,12.46
2018-11-06T17:36:31.202Z,12.41
2018-11-06T17:39:00.133Z,12.37
2018-11-06T17:41:27.964Z,12.32
2018-11-06T17:43:56.898Z,12.30
2018-11-06T17:46:25.369Z,12.26
2018-11-06T17:48:53.817Z,12.21
2018-11-06T17:51:22.392Z,12.20
2018-11-06T17:53:49.935Z,12.18
2018-11-06T17:56:18.933Z,12.16
2018-11-06T17:58:47.287Z,12.14
2018-11-06T18:01:15.072Z,12.15
2018-11-06T18:03:44.300Z,12.13
2018-11-06T18:06:12.358Z,12.10
2018-11-06T18:08:40.692Z,12.07
2018-11-06T18:11:09.265Z,12.04
2018-11-06T18:13:36.794Z,12.02
2018-11-06T18:16:05.721Z,12.02
2018-11-06T18:18:34.068Z,11.99
2018-11-06T18:21:02.410Z,11.97
2018-11-06T18:23:30.201Z,11.97
2018-11-06T18:25:59.205Z,11.96
2018-11-06T18:28:27.738Z,11.96
2018-11-06T18:30:55.845Z,11.97
2018-11-06T18:33:24.221Z,11.99
2018-11-06T18:35:52.562Z,12.02
2018-11-06T18:38:20.922Z,12.04
2018-11-06T18:40:49.252Z,12.05
2018-11-06T18:43:17.015Z,12.05
2018-11-06T18:45:46.259Z,12.06
2018-11-06T18:48:14.618Z,12.06
2018-11-06T18:50:42.963Z,12.07
2018-11-06T18:53:11.315Z,12.06
2018-11-06T18:55:39.665Z,12.05
2018-11-06T18:58:07.562Z,12.04
2018-11-06T19:00:35.913Z,12.04
2018-11-06T19:03:04.448Z,12.04
2018-11-06T19:05:33.508Z,12.06
2018-11-06T19:08:01.273Z,12.07
2018-11-06T19:10:30.459Z,12.08
2018-11-06T19:12:59.061Z,12.08
2018-11-06T19:15:26.829Z,12.09
2018-11-06T19:17:55.779Z,12.09
2018-11-06T19:20:23.685Z,12.09
2018-11-06T19:22:52.126Z,12.06
2018-11-06T19:25:22.424Z,12.04
2018-11-06T19:27:52.059Z,12.02
2018-11-06T19:30:20.488Z,12.00
2018-11-06T19:32:48.745Z,11.96
2018-11-06T19:35:17.165Z,11.95
2018-11-06T19:37:46.350Z,11.97
2018-11-06T19:40:15.324Z,11.96
2018-11-06T19:42:45.941Z,11.93
2018-11-06T19:45:20.135Z,11.90
2018-11-06T19:47:49.596Z,11.84
2018-11-06T19:50:22.260Z,11.86
2018-11-06T19:52:52.595Z,11.90
2018-11-06T19:55:21.553Z,11.95
2018-11-06T19:57:49.658Z,12.05
2018-11-06T20:00:18.618Z,12.16
2018-11-06T20:02:50.344Z,12.24
2018-11-06T20:05:19.225Z,12.31
2018-11-06T20:07:48.523Z,12.44
2018-11-06T20:10:16.803Z,12.53
2018-11-06T20:12:45.389Z,12.61
2018-11-06T20:15:13.140Z,12.71
2018-11-06T20:17:42.092Z,12.77
2018-11-06T20:20:10.455Z,12.82
2018-11-06T20:22:38.946Z,12.88
2018-11-06T20:25:07.319Z,12.93
2018-11-06T20:27:35.685Z,13.00
2018-11-06T20:30:04.131Z,13.08
2018-11-06T20:32:32.443Z,13.18
2018-11-06T20:35:01.767Z,13.27
2018-11-06T20:37:29.193Z,13.34
2018-11-06T20:39:57.470Z,13.40
2018-11-06T20:42:25.879Z,13.45
2018-11-06T20:44:53.638Z,13.48
2018-11-06T20:47:22.568Z,13.52
2018-11-06T20:49:51.065Z,13.54
2018-11-06T20:52:19.296Z,13.58
2018-11-06T20:54:47.631Z,13.63
2018-11-06T20:57:15.435Z,13.66
2018-11-06T20:59:44.399Z,13.68
2018-11-06T21:02:12.107Z,13.69
2018-11-06T21:04:41.011Z,13.69
2018-11-06T21:07:09.339Z,13.68
2018-11-06T21:09:37.759Z,13.66
2018-11-06T21:12:06.105Z,13.65
2018-11-06T21:14:34.442Z,13.67
2018-11-06T21:17:03.008Z,13.68
2018-11-06T21:19:31.774Z,13.66
2018-11-06T21:22:00.151Z,13.64
2018-11-06T21:24:28.057Z,13.59
2018-11-06T21:26:56.558Z,13.51
2018-11-06T21:29:25.137Z,13.38
2018-11-06T21:31:53.947Z,13.23
2018-11-06T21:34:22.364Z,13.06
2018-11-06T21:36:50.755Z,12.90
2018-11-06T21:39:18.551Z,12.80
2018-11-06T21:41:46.990Z,12.70
2018-11-06T21:44:15.727Z,12.60
2018-11-06T21:46:43.985Z,12.52
2018-11-06T21:49:13.715Z,12.45
2018-11-06T21:51:42.162Z,12.38
2018-11-06T21:54:09.916Z,12.33
2018-11-06T21:56:38.966Z,12.25
2018-11-06T21:59:06.725Z,12.20
2018-11-06T22:01:35.667Z,12.10
2018-11-06T22:04:04.009Z,12.01
2018-11-06T22:06:32.380Z,11.92
2018-11-06T22:09:00.680Z,11.85
2018-11-06T22:11:29.137Z,11.82
2018-11-06T22:13:56.914Z,11.77
2018-11-06T22:16:25.810Z,11.75
2018-11-06T22:18:54.133Z,11.72
2018-11-06T22:21:22.482Z,11.70
2018-11-06T22:23:50.807Z,11.70
2018-11-06T22:26:18.886Z,11.67
2018-11-06T22:28:46.906Z,11.62
2018-11-06T22:31:15.824Z,11.56
2018-11-06T22:33:44.178Z,11.49
2018-11-06T22:36:12.500Z,11.44
2018-11-06T22:38:40.821Z,11.38
2018-11-06T22:41:08.569Z,11.31
2018-11-06T22:43:37.503Z,11.26
2018-11-06T22:46:05.232Z,11.21
2018-11-06T22:48:33.601Z,11.14
2018-11-06T22:51:01.939Z,11.09
2018-11-06T22:53:30.267Z,11.06
2018-11-06T22:55:59.176Z,11.05
2018-11-06T22:58:26.919Z,11.04
2018-11-06T23:00:55.830Z,11.00
2018-11-06T23:03:24.164Z,10.92
2018-11-06T23:05:52.446Z,10.87
2018-11-06T23:08:20.246Z,10.85
2018-11-06T23:10:49.076Z,10.85
2018-11-06T23:13:17.984Z,10.83
2018-11-06T23:15:45.732Z,10.80
2018-11-06T23:18:14.657Z,10.78
2018-11-06T23:20:42.417Z,10.74
2018-11-06T23:23:11.322Z,10.73
2018-11-06T23:25:39.654Z,10.70
2018-11-06T23:28:07.982Z,10.68
2018-11-06T23:30:35.739Z,10.66
2018-11-06T23:33:04.070Z,10.63
2018-11-06T23:35:33.043Z,10.61
2018-11-06T23:38:01.376Z,10.57
2018-11-06T23:40:29.120Z,10.52
2018-11-06T23:42:57.442Z,10.50
2018-11-06T23:45:25.777Z,10.49
2018-11-06T23:47:54.105Z,10.47
2018-11-06T23:50:23.017Z,10.45
2018-11-06T23:52:51.352Z,10.41
2018-11-06T23:55:19.681Z,10.35
2018-11-06T23:57:48.014Z,10.29
